createdAt,value
2023-01-19T00:01:08.775Z,0.52
2023-01-19T00:06:10.338Z,1.05
2023-01-19T00:11:12.808Z,0.60
2023-01-19T00:16:17.515Z,0.70
2023-01-19T00:21:19.583Z,1.08
2023-01-19T00:26:22.366Z,0.82
2023-01-19T00:31:24.138Z,0.70
2023-01-19T00:36:25.721Z,0.77
2023-01-19T00:41:46.233Z,1.00
2023-01-19T00:46:47.729Z,0.70
2023-01-19T00:51:50.051Z,1.00
2023-01-19T00:56:51.546Z,0.70
2023-01-19T01:01:53.248Z,0.90
2023-01-19T01:06:54.805Z,0.98
2023-01-19T01:11:56.884Z,0.90
2023-01-19T01:16:58.381Z,0.73
2023-01-19T01:21:59.930Z,0.77
2023-01-19T01:27:01.587Z,1.00
2023-01-19T01:32:03.097Z,0.88
2023-01-19T01:37:04.658Z,0.70
2023-01-19T01:42:14.171Z,0.40
2023-01-19T01:47:34.298Z,0.88
2023-01-19T01:52:37.818Z,0.95
2023-01-19T01:57:42.180Z,0.65
2023-01-19T02:02:52.617Z,0.90
2023-01-19T02:08:21.213Z,1.00
2023-01-19T02:13:23.352Z,0.70
2023-01-19T02:18:28.547Z,0.90
2023-01-19T02:23:33.109Z,0.50
2023-01-19T02:28:34.667Z,0.70
2023-01-19T02:33:37.161Z,0.75
2023-01-19T02:38:39.014Z,0.65
2023-01-19T02:43:41.897Z,0.43
2023-01-19T02:48:44.053Z,0.55
2023-01-19T02:53:55.449Z,0.73
2023-01-19T02:59:06.098Z,0.57
2023-01-19T03:04:19.590Z,1.00
2023-01-19T03:09:21.067Z,1.00
2023-01-19T03:14:25.210Z,0.88
2023-01-19T03:19:27.990Z,0.50
2023-01-19T03:24:30.980Z,0.63
2023-01-19T03:29:34.905Z,0.65
2023-01-19T03:34:38.078Z,0.35
2023-01-19T03:39:39.857Z,0.52
2023-01-19T03:44:42.385Z,0.52
2023-01-19T03:49:45.329Z,0.63
2023-01-19T03:54:46.977Z,0.57
2023-01-19T03:59:49.631Z,0.60
2023-01-19T04:04:51.137Z,0.57
2023-01-19T04:09:52.630Z,0.52
2023-01-19T04:14:54.610Z,0.50
2023-01-19T04:19:56.082Z,0.75
2023-01-19T04:24:57.638Z,0.88
2023-01-19T04:30:00.451Z,0.73
2023-01-19T04:35:02.144Z,0.47
2023-01-19T04:40:04.089Z,0.77
2023-01-19T04:45:05.745Z,0.52
2023-01-19T04:50:08.416Z,1.00
2023-01-19T04:55:10.313Z,0.73
2023-01-19T05:00:12.117Z,0.65
2023-01-19T05:05:13.802Z,0.75
2023-01-19T05:10:15.383Z,0.52
2023-01-19T05:15:16.871Z,0.95
2023-01-19T05:20:18.787Z,0.70
2023-01-19T05:25:20.301Z,0.77
2023-01-19T05:30:21.871Z,0.65
2023-01-19T05:35:35.184Z,0.98
2023-01-19T05:40:37.545Z,0.60
2023-01-19T05:45:39.000Z,0.47
2023-01-19T05:50:40.546Z,0.77
2023-01-19T05:55:42.471Z,0.68
2023-01-19T06:00:43.995Z,1.10
2023-01-19T06:05:45.466Z,0.45
2023-01-19T06:10:46.927Z,0.65
2023-01-19T06:15:48.620Z,0.77
2023-01-19T06:20:50.102Z,1.00
2023-01-19T06:25:51.873Z,0.70
2023-01-19T06:30:54.343Z,0.88
2023-01-19T06:35:56.241Z,1.00
2023-01-19T06:41:03.323Z,0.80
2023-01-19T06:46:05.062Z,0.90
2023-01-19T06:51:07.057Z,1.23
2023-01-19T06:56:09.665Z,1.00
2023-01-19T07:01:11.768Z,0.90
2023-01-19T07:06:13.343Z,1.35
2023-01-19T07:11:25.391Z,1.02
2023-01-19T07:16:33.141Z,1.02
2023-01-19T07:21:34.617Z,1.42
2023-01-19T07:26:36.099Z,2.47
2023-01-19T07:31:37.848Z,1.38
2023-01-19T07:36:39.370Z,1.02
2023-01-19T07:41:40.862Z,1.65
2023-01-19T07:46:43.405Z,1.10
2023-01-19T07:51:45.222Z,1.02
2023-01-19T07:56:46.705Z,1.02
2023-01-19T08:01:48.354Z,1.30
2023-01-19T08:06:49.973Z,1.17
2023-01-19T08:11:51.624Z,1.80
2023-01-19T08:16:53.095Z,1.45
2023-01-19T08:21:54.761Z,1.17
2023-01-19T08:27:03.602Z,2.15
2023-01-19T08:32:06.766Z,1.92
2023-01-19T08:37:08.283Z,2.90
2023-01-19T08:42:09.845Z,2.45
2023-01-19T08:47:11.594Z,2.92
2023-01-19T08:52:13.167Z,2.45
2023-01-19T08:57:15.398Z,2.08
2023-01-19T09:02:16.936Z,2.65
2023-01-19T09:07:18.842Z,2.05
2023-01-19T09:12:20.353Z,2.55
2023-01-19T09:17:21.819Z,1.90
2023-01-19T09:22:23.348Z,1.63
2023-01-19T09:27:24.919Z,0.85
2023-01-19T09:32:26.402Z,1.38
2023-01-19T09:37:27.946Z,1.48
2023-01-19T09:42:29.489Z,1.85
2023-01-19T09:47:31.293Z,1.40
2023-01-19T09:52:36.210Z,1.60
2023-01-19T09:57:38.102Z,1.23
2023-01-19T10:02:44.364Z,1.25
2023-01-19T10:07:45.888Z,1.23
2023-01-19T10:12:47.373Z,1.30
2023-01-19T10:18:06.508Z,1.48
2023-01-19T10:23:20.021Z,1.42
2023-01-19T10:28:23.839Z,1.15
2023-01-19T10:33:25.463Z,1.25
2023-01-19T10:38:29.027Z,1.65
2023-01-19T10:43:44.759Z,1.17
2023-01-19T10:48:48.231Z,1.40
2023-01-19T10:54:01.103Z,1.50
2023-01-19T10:59:04.148Z,1.83
2023-01-19T11:04:19.349Z,1.42
2023-01-19T11:09:21.395Z,1.58
2023-01-19T11:14:24.286Z,1.25
2023-01-19T11:19:27.527Z,1.20
2023-01-19T11:24:30.115Z,1.02
2023-01-19T11:29:32.085Z,1.58
2023-01-19T11:34:34.735Z,1.45
2023-01-19T11:39:46.439Z,1.23
2023-01-19T11:44:59.316Z,1.40
2023-01-19T11:50:14.198Z,1.35
2023-01-19T11:55:23.287Z,1.45
2023-01-19T12:00:36.481Z,1.77
2023-01-19T12:05:40.614Z,1.10
2023-01-19T12:10:44.172Z,1.48
2023-01-19T12:15:46.946Z,1.13
2023-01-19T12:20:55.272Z,1.13
2023-01-19T12:26:15.240Z,1.02
2023-01-19T12:31:17.737Z,1.20
2023-01-19T12:36:37.630Z,1.63
2023-01-19T12:41:40.146Z,1.35
2023-01-19T12:47:05.354Z,1.08
2023-01-19T12:52:12.963Z,1.48
2023-01-19T12:57:43.812Z,1.77
2023-01-19T13:02:47.036Z,1.42
2023-01-19T13:08:07.302Z,1.38
2023-01-19T13:13:16.434Z,1.50
2023-01-19T13:18:19.894Z,1.27
2023-01-19T13:23:25.521Z,1.50
2023-01-19T13:28:36.000Z,1.05
2023-01-19T13:33:41.160Z,1.20
2023-01-19T13:38:42.931Z,0.90
2023-01-19T13:43:44.928Z,1.00
2023-01-19T13:48:54.592Z,0.98
2023-01-19T13:53:56.769Z,1.50
2023-01-19T13:59:10.015Z,1.15
2023-01-19T14:04:27.681Z,1.27
2023-01-19T14:09:29.578Z,1.60
2023-01-19T14:14:31.404Z,1.38
2023-01-19T14:19:47.455Z,1.50
2023-01-19T14:24:49.064Z,1.10
2023-01-19T14:29:53.753Z,1.40
2023-01-19T14:35:04.525Z,0.95
2023-01-19T14:40:12.901Z,1.20
2023-01-19T14:45:21.694Z,0.95
2023-01-19T14:50:24.525Z,0.88
2023-01-19T14:55:30.521Z,1.10
2023-01-19T15:00:32.279Z,1.10
2023-01-19T15:05:33.800Z,1.02
2023-01-19T15:10:35.789Z,1.35
2023-01-19T15:15:37.522Z,1.40
2023-01-19T15:20:38.990Z,1.08
2023-01-19T15:25:40.623Z,1.77
2023-01-19T15:30:42.231Z,1.13
2023-01-19T15:35:43.761Z,1.15
2023-01-19T15:40:48.018Z,1.10
2023-01-19T15:46:13.284Z,1.30
2023-01-19T15:51:15.655Z,1.35
2023-01-19T15:56:18.347Z,1.52
2023-01-19T16:01:35.454Z,1.33
2023-01-19T16:06:37.039Z,1.70
2023-01-19T16:11:38.550Z,1.83
2023-01-19T16:16:40.272Z,1.98
2023-01-19T16:21:43.923Z,1.33
2023-01-19T16:26:45.395Z,1.50
2023-01-19T16:31:46.935Z,2.47
2023-01-19T16:36:48.802Z,2.50
2023-01-19T16:41:50.299Z,2.13
2023-01-19T16:46:51.825Z,2.95
2023-01-19T16:51:54.946Z,2.55
2023-01-19T16:56:57.136Z,3.45
2023-01-19T17:01:58.756Z,3.13
2023-01-19T17:07:00.282Z,3.85
2023-01-19T17:12:01.891Z,3.80
2023-01-19T17:17:04.365Z,3.63
2023-01-19T17:22:05.989Z,3.15
2023-01-19T17:27:07.481Z,2.78
2023-01-19T17:32:08.991Z,2.40
2023-01-19T17:37:10.493Z,2.13
2023-01-19T17:42:12.058Z,3.42
2023-01-19T17:47:13.576Z,3.78
2023-01-19T17:52:17.810Z,3.83
2023-01-19T17:57:19.418Z,4.32
2023-01-19T18:02:24.421Z,6.13
2023-01-19T18:07:26.045Z,8.63
2023-01-19T18:12:27.557Z,9.20
2023-01-19T18:17:30.427Z,8.05
2023-01-19T18:22:32.306Z,7.97
2023-01-19T18:27:33.786Z,7.45
2023-01-19T18:32:35.936Z,6.47
2023-01-19T18:37:37.441Z,4.88
2023-01-19T18:42:38.915Z,5.20
2023-01-19T18:47:40.387Z,4.03
2023-01-19T18:52:42.121Z,2.80
2023-01-19T18:57:43.661Z,3.03
2023-01-19T19:02:45.168Z,3.15
2023-01-19T19:07:46.652Z,2.53
2023-01-19T19:12:48.300Z,3.25
2023-01-19T19:17:49.838Z,2.20
2023-01-19T19:22:51.773Z,2.40
2023-01-19T19:27:53.354Z,2.42
2023-01-19T19:32:57.290Z,2.92
2023-01-19T19:37:58.840Z,3.72
2023-01-19T19:43:00.419Z,4.15
2023-01-19T19:48:01.918Z,4.03
2023-01-19T19:53:03.478Z,3.10
2023-01-19T19:58:05.037Z,3.33
2023-01-19T20:03:13.412Z,3.20
2023-01-19T20:08:14.894Z,2.67
2023-01-19T20:13:19.266Z,2.83
2023-01-19T20:18:20.803Z,3.17
2023-01-19T20:23:22.297Z,2.95
2023-01-19T20:28:23.769Z,2.22
2023-01-19T20:33:25.575Z,2.38
2023-01-19T20:38:27.099Z,2.25
2023-01-19T20:43:28.946Z,2.40
2023-01-19T20:48:30.510Z,2.28
2023-01-19T20:53:32.609Z,2.63
2023-01-19T20:58:34.172Z,2.72
2023-01-19T21:03:36.313Z,2.22
2023-01-19T21:08:38.229Z,2.42
2023-01-19T21:13:39.748Z,1.88
2023-01-19T21:18:41.250Z,1.98
2023-01-19T21:23:44.590Z,1.80
2023-01-19T21:28:46.176Z,1.48
2023-01-19T21:33:49.217Z,1.40
2023-01-19T21:38:51.575Z,1.77
2023-01-19T21:43:53.161Z,1.15
2023-01-19T21:48:58.544Z,1.30
2023-01-19T21:54:01.149Z,1.92
2023-01-19T21:59:03.518Z,2.13
2023-01-19T22:04:05.234Z,2.10
2023-01-19T22:09:07.381Z,1.27
2023-01-19T22:14:08.925Z,1.75
2023-01-19T22:19:12.704Z,2.00
2023-01-19T22:24:14.308Z,2.20
2023-01-19T22:29:15.818Z,1.50
2023-01-19T22:34:17.425Z,1.58
2023-01-19T22:39:18.958Z,1.95
2023-01-19T22:44:21.509Z,1.45
2023-01-19T22:49:23.226Z,1.33
2023-01-19T22:54:24.826Z,1.58
2023-01-19T22:59:26.338Z,1.30
2023-01-19T23:04:27.957Z,1.58
2023-01-19T23:09:29.447Z,1.67
2023-01-19T23:14:30.935Z,1.50
2023-01-19T23:19:32.435Z,1.27
2023-01-19T23:24:33.963Z,1.00
2023-01-19T23:29:36.305Z,1.00
2023-01-19T23:34:37.834Z,1.33
2023-01-19T23:39:39.337Z,1.35
2023-01-19T23:44:42.092Z,0.77
2023-01-19T23:49:43.769Z,1.33
2023-01-19T23:54:45.335Z,1.27
2023-01-19T23:59:46.842Z,1.35
